createdAt,value
2016-04-07T00:00:35.229Z,1004.65
2016-04-07T00:01:38.402Z,1004.64
2016-04-07T00:02:35.139Z,1004.69
2016-04-07T00:03:35.095Z,1004.65
2016-04-07T00:04:35.051Z,1004.7
2016-04-07T00:05:35.022Z,1004.67
2016-04-07T00:06:34.978Z,1004.68
2016-04-07T00:07:34.919Z,1004.71
2016-04-07T00:08:37.891Z,1004.66
2016-04-07T00:09:34.814Z,1004.69
2016-04-07T00:10:34.771Z,1004.66
2016-04-07T00:11:34.727Z,1004.69
2016-04-07T00:12:34.667Z,1004.66
2016-04-07T00:13:34.622Z,1004.68
2016-04-07T00:14:34.782Z,1004.68
2016-04-07T00:15:34.737Z,1004.7
2016-04-07T00:16:37.514Z,1004.74
2016-04-07T00:17:34.514Z,1004.73
2016-04-07T00:18:34.701Z,1004.72
2016-04-07T00:19:34.498Z,1004.7
2016-04-07T00:20:34.499Z,1004.71
2016-04-07T00:21:34.483Z,1004.71
2016-04-07T00:22:34.455Z,1004.7
2016-04-07T00:23:37.426Z,1004.71
2016-04-07T00:24:34.381Z,1004.76
2016-04-07T00:25:37.369Z,1004.74
2016-04-07T00:26:34.320Z,1004.74
2016-04-07T00:27:34.484Z,1004.78
2016-04-07T00:28:34.242Z,1004.79
2016-04-07T00:29:37.189Z,1004.78
2016-04-07T00:30:34.150Z,1004.79
2016-04-07T00:31:34.110Z,1004.81
2016-04-07T00:32:34.068Z,1004.77
2016-04-07T00:33:34.025Z,1004.79
2016-04-07T00:34:33.966Z,1004.81
2016-04-07T00:35:33.940Z,1004.77
2016-04-07T00:36:33.882Z,1004.79
2016-04-07T00:37:33.854Z,1004.78
2016-04-07T00:38:33.795Z,1004.82
2016-04-07T00:39:33.736Z,1004.84
2016-04-07T00:40:33.896Z,1004.83
2016-04-07T00:41:33.650Z,1004.82
2016-04-07T00:42:33.620Z,1004.81
2016-04-07T00:43:33.562Z,1004.78
2016-04-07T00:44:33.502Z,1004.81
2016-04-07T00:45:33.473Z,1004.78
2016-04-07T00:46:33.618Z,1004.79
2016-04-07T00:47:33.370Z,1004.79
2016-04-07T00:48:33.325Z,1004.76
2016-04-07T00:49:33.281Z,1004.8
2016-04-07T00:50:33.237Z,1004.8
2016-04-07T00:51:33.178Z,1004.76
2016-04-07T00:52:33.148Z,1004.8
2016-04-07T00:53:33.089Z,1004.75
2016-04-07T00:54:33.045Z,1004.8
2016-04-07T00:55:33.001Z,1004.82
2016-04-07T00:56:32.956Z,1004.85
2016-04-07T00:57:32.897Z,1004.86
2016-04-07T00:58:32.869Z,1004.82
2016-04-07T00:59:32.808Z,1004.8
2016-04-07T01:00:32.764Z,1004.86
2016-04-07T01:01:32.720Z,1004.8
2016-04-07T01:02:32.661Z,1004.8
2016-04-07T01:03:32.616Z,1004.82
2016-04-07T01:04:35.588Z,1004.81
2016-04-07T01:05:32.528Z,1004.8
2016-04-07T01:06:35.500Z,1004.79
2016-04-07T01:07:35.643Z,1004.82
2016-04-07T01:08:32.411Z,1004.79
2016-04-07T01:09:32.336Z,1004.78
2016-04-07T01:10:32.291Z,1004.76
2016-04-07T01:11:32.247Z,1004.76
2016-04-07T01:12:32.203Z,1004.77
2016-04-07T01:13:32.159Z,1004.75
2016-04-07T01:14:32.099Z,1004.75
2016-04-07T01:15:32.055Z,1004.72
2016-04-07T01:16:32.010Z,1004.74
2016-04-07T01:17:31.965Z,1004.73
2016-04-07T01:18:31.922Z,1004.72
2016-04-07T01:19:31.909Z,1004.72
2016-04-07T01:20:31.818Z,1004.7
2016-04-07T01:21:31.774Z,1004.71
2016-04-07T01:22:31.729Z,1004.7
2016-04-07T01:23:34.686Z,1004.7
2016-04-07T01:24:31.641Z,1004.7
2016-04-07T01:25:31.581Z,1004.68
2016-04-07T01:26:31.537Z,1004.68
2016-04-07T01:27:31.493Z,1004.62
2016-04-07T01:28:31.449Z,1004.69
2016-04-07T01:29:31.389Z,1004.65
2016-04-07T01:30:31.345Z,1004.67
2016-04-07T01:31:31.300Z,1004.71
2016-04-07T01:32:31.256Z,1004.72
2016-04-07T01:33:31.213Z,1004.68
2016-04-07T01:34:31.168Z,1004.66
2016-04-07T01:35:31.124Z,1004.69
2016-04-07T01:36:31.064Z,1004.69
2016-04-07T01:37:31.020Z,1004.64
2016-04-07T01:38:30.977Z,1004.66
2016-04-07T01:39:30.932Z,1004.62
2016-04-07T01:40:30.888Z,1004.68
2016-04-07T01:41:30.827Z,1004.62
2016-04-07T01:42:30.783Z,1004.67
2016-04-07T01:43:30.740Z,1004.64
2016-04-07T01:44:30.696Z,1004.65
2016-04-07T01:45:30.635Z,1004.61
2016-04-07T01:46:30.607Z,1004.62
2016-04-07T01:47:33.562Z,1004.59
2016-04-07T01:48:30.503Z,1004.61
2016-04-07T01:49:30.459Z,1004.63
2016-04-07T01:50:30.415Z,1004.61
2016-04-07T01:51:30.370Z,1004.58
2016-04-07T01:52:30.342Z,1004.58
2016-04-07T01:53:30.282Z,1004.65
2016-04-07T01:54:30.222Z,1004.57
2016-04-07T01:55:30.178Z,1004.62
2016-04-07T01:56:30.134Z,1004.6
2016-04-07T01:57:33.089Z,1004.61
2016-04-07T01:58:30.030Z,1004.62
2016-04-07T01:59:29.985Z,1004.65
2016-04-07T02:00:29.941Z,1004.65
2016-04-07T02:01:29.897Z,1004.64
2016-04-07T02:02:29.853Z,1004.65
2016-04-07T02:03:29.793Z,1004.65
2016-04-07T02:04:29.749Z,1004.66
2016-04-07T02:05:29.705Z,1004.62
2016-04-07T02:06:29.660Z,1004.65
2016-04-07T02:07:29.616Z,1004.64
2016-04-07T02:08:29.572Z,1004.63
2016-04-07T02:09:29.513Z,1004.64
2016-04-07T02:10:29.469Z,1004.64
2016-04-07T02:11:29.424Z,1004.66
2016-04-07T02:12:32.379Z,1004.64
2016-04-07T02:13:29.539Z,1004.62
2016-04-07T02:14:29.291Z,1004.63
2016-04-07T02:15:29.232Z,1004.61
2016-04-07T02:16:29.188Z,1004.64
2016-04-07T02:17:29.143Z,1004.64
2016-04-07T02:18:29.084Z,1004.65
2016-04-07T02:19:29.040Z,1004.7
2016-04-07T02:20:28.995Z,1004.67
2016-04-07T02:21:28.951Z,1004.7
2016-04-07T02:22:28.907Z,1004.68
2016-04-07T02:23:28.862Z,1004.7
2016-04-07T02:24:28.818Z,1004.66
2016-04-07T02:25:28.759Z,1004.68
2016-04-07T02:26:28.715Z,1004.66
2016-04-07T02:27:28.670Z,1004.67
2016-04-07T02:28:28.626Z,1004.7
2016-04-07T02:29:28.582Z,1004.71
2016-04-07T02:30:28.538Z,1004.7
2016-04-07T02:31:28.478Z,1004.73
2016-04-07T02:32:28.433Z,1004.71
2016-04-07T02:33:28.389Z,1004.7
2016-04-07T02:34:28.345Z,1004.75
2016-04-07T02:35:28.301Z,1004.74
2016-04-07T02:36:28.242Z,1004.75
2016-04-07T02:37:28.197Z,1004.71
2016-04-07T02:38:28.152Z,1004.65
2016-04-07T02:39:28.108Z,1004.68
2016-04-07T02:40:28.064Z,1004.71
2016-04-07T02:41:28.004Z,1004.68
2016-04-07T02:42:27.960Z,1004.68
2016-04-07T02:43:27.916Z,1004.7
2016-04-07T02:44:27.872Z,1004.71
2016-04-07T02:45:27.827Z,1004.67
2016-04-07T02:46:30.784Z,1004.7
2016-04-07T02:47:27.724Z,1004.68
2016-04-07T02:48:27.680Z,1004.74
2016-04-07T02:49:27.635Z,1004.69
2016-04-07T02:50:27.591Z,1004.71
2016-04-07T02:51:27.548Z,1004.72
2016-04-07T02:52:27.503Z,1004.76
2016-04-07T02:53:27.443Z,1004.72
2016-04-07T02:54:30.446Z,1004.75
2016-04-07T02:55:27.355Z,1004.75
2016-04-07T02:56:27.311Z,1004.76
2016-04-07T02:57:27.251Z,1004.77
2016-04-07T02:58:27.222Z,1004.77
2016-04-07T02:59:27.162Z,1004.79
2016-04-07T03:00:27.118Z,1004.77
2016-04-07T03:01:27.075Z,1004.81
2016-04-07T03:02:27.030Z,1004.8
2016-04-07T03:03:26.986Z,1004.82
2016-04-07T03:04:26.926Z,1004.8
2016-04-07T03:05:26.882Z,1004.78
2016-04-07T03:06:26.838Z,1004.79
2016-04-07T03:07:26.794Z,1004.76
2016-04-07T03:08:26.750Z,1004.8
2016-04-07T03:09:26.705Z,1004.77
2016-04-07T03:10:26.645Z,1004.79
2016-04-07T03:11:29.602Z,1004.82
2016-04-07T03:12:26.589Z,1004.82
2016-04-07T03:13:26.496Z,1004.8
2016-04-07T03:14:26.468Z,1004.83
2016-04-07T03:15:26.408Z,1004.83
2016-04-07T03:16:26.365Z,1004.82
2016-04-07T03:17:26.320Z,1004.8
2016-04-07T03:18:29.276Z,1004.82
2016-04-07T03:19:26.215Z,1004.83
2016-04-07T03:20:26.172Z,1004.88
2016-04-07T03:21:26.128Z,1004.86
2016-04-07T03:22:26.084Z,1004.87
2016-04-07T03:23:26.070Z,1004.88
2016-04-07T03:24:25.979Z,1004.86
2016-04-07T03:25:28.935Z,1004.87
2016-04-07T03:26:28.892Z,1004.85
2016-04-07T03:27:25.847Z,1004.89
2016-04-07T03:28:25.803Z,1004.91
2016-04-07T03:29:25.759Z,1004.9
2016-04-07T03:30:25.698Z,1004.9
2016-04-07T03:31:25.655Z,1004.91
2016-04-07T03:32:25.611Z,1004.95
2016-04-07T03:33:25.567Z,1004.91
2016-04-07T03:34:28.538Z,1004.91
2016-04-07T03:35:25.478Z,1004.95
2016-04-07T03:36:25.419Z,1004.91
2016-04-07T03:37:25.375Z,1004.89
2016-04-07T03:38:25.330Z,1004.94
2016-04-07T03:39:25.317Z,1004.87
2016-04-07T03:40:25.258Z,1004.86
2016-04-07T03:41:25.182Z,1004.89
2016-04-07T03:42:25.153Z,1004.9
2016-04-07T03:43:25.093Z,1004.88
2016-04-07T03:44:25.050Z,1004.89
2016-04-07T03:45:25.005Z,1004.86
2016-04-07T03:46:27.961Z,1004.93
2016-04-07T03:47:24.917Z,1004.94
2016-04-07T03:48:24.856Z,1004.96
2016-04-07T03:49:24.812Z,1004.94
2016-04-07T03:50:24.971Z,1004.94
2016-04-07T03:51:24.724Z,1004.91
2016-04-07T03:52:24.664Z,1004.94
2016-04-07T03:53:27.636Z,1004.9
2016-04-07T03:54:24.608Z,1004.94
2016-04-07T03:55:24.532Z,1004.93
2016-04-07T03:56:24.487Z,1004.92
2016-04-07T03:57:24.428Z,1004.91
2016-04-07T03:58:24.384Z,1004.91
2016-04-07T03:59:24.339Z,1004.94
2016-04-07T04:00:24.295Z,1004.95
2016-04-07T04:01:27.251Z,1004.97
2016-04-07T04:02:27.191Z,1004.96
2016-04-07T04:03:24.147Z,1004.96
2016-04-07T04:04:24.103Z,1004.95
2016-04-07T04:05:24.059Z,1004.97
2016-04-07T04:06:24.014Z,1004.96
2016-04-07T04:07:23.970Z,1004.97
2016-04-07T04:08:23.911Z,1005
2016-04-07T04:09:23.867Z,1004.99
2016-04-07T04:10:23.822Z,1004.99
2016-04-07T04:11:23.778Z,1005.03
2016-04-07T04:12:23.734Z,1005.01
2016-04-07T04:13:23.674Z,1004.99
2016-04-07T04:14:23.630Z,1005.03
2016-04-07T04:15:23.586Z,1005.03
2016-04-07T04:16:23.541Z,1005.01
2016-04-07T04:17:23.497Z,1005.01
2016-04-07T04:18:23.438Z,1005.01
2016-04-07T04:19:23.394Z,1004.99
2016-04-07T04:20:23.349Z,1004.97
2016-04-07T04:21:23.321Z,1004.93
2016-04-07T04:22:23.261Z,1004.95
2016-04-07T04:23:23.201Z,1004.93
2016-04-07T04:24:23.157Z,1004.95
2016-04-07T04:25:23.113Z,1004.95
2016-04-07T04:26:23.068Z,1004.95
2016-04-07T04:27:23.024Z,1004.95
2016-04-07T04:28:22.980Z,1004.94
2016-04-07T04:29:22.921Z,1004.92
2016-04-07T04:30:22.875Z,1004.93
2016-04-07T04:31:22.847Z,1004.86
2016-04-07T04:32:22.787Z,1004.9
2016-04-07T04:33:22.743Z,1004.9
2016-04-07T04:34:22.684Z,1004.91
2016-04-07T04:35:22.639Z,1004.91
2016-04-07T04:36:22.595Z,1004.93
2016-04-07T04:37:22.566Z,1004.91
2016-04-07T04:38:22.506Z,1004.89
2016-04-07T04:39:22.463Z,1004.98
2016-04-07T04:40:22.403Z,1004.92
2016-04-07T04:41:22.359Z,1004.96
2016-04-07T04:42:22.314Z,1005
2016-04-07T04:43:22.269Z,1005.01
2016-04-07T04:44:22.226Z,1005
2016-04-07T04:45:22.182Z,1005
2016-04-07T04:46:22.138Z,1005.01
2016-04-07T04:47:22.077Z,1004.98
2016-04-07T04:48:31.033Z,1005.05
2016-04-07T04:49:21.990Z,1005.01
2016-04-07T04:50:22.149Z,1005.05
2016-04-07T04:51:21.885Z,1005.08
2016-04-07T04:52:21.841Z,1005.11
2016-04-07T04:53:21.797Z,1005.08
2016-04-07T04:54:21.754Z,1005.12
2016-04-07T04:55:21.693Z,1005.12
2016-04-07T04:56:21.649Z,1005.11
2016-04-07T04:57:21.605Z,1005.11
2016-04-07T04:58:21.560Z,1005.14
2016-04-07T04:59:21.517Z,1005.07
2016-04-07T05:00:21.472Z,1005.09
2016-04-07T05:01:21.412Z,1005.12
2016-04-07T05:02:21.368Z,1005.13
2016-04-07T05:03:21.324Z,1005.14
2016-04-07T05:04:21.280Z,1005.12
2016-04-07T05:05:21.236Z,1005.11
2016-04-07T05:06:21.192Z,1005.12
2016-04-07T05:07:21.132Z,1005.11
2016-04-07T05:08:21.087Z,1005.08
2016-04-07T05:09:21.044Z,1005.11
2016-04-07T05:10:20.999Z,1005.15
2016-04-07T05:11:20.955Z,1005.14
2016-04-07T05:12:20.895Z,1005.16
2016-04-07T05:13:20.850Z,1005.16
2016-04-07T05:14:20.808Z,1005.19
2016-04-07T05:15:20.763Z,1005.16
2016-04-07T05:16:20.719Z,1005.2
2016-04-07T05:17:20.658Z,1005.18
2016-04-07T05:18:20.630Z,1005.19
2016-04-07T05:19:20.571Z,1005.18
2016-04-07T05:20:20.526Z,1005.18
2016-04-07T05:21:20.497Z,1005.18
2016-04-07T05:22:20.422Z,1005.2
2016-04-07T05:23:23.393Z,1005.18
2016-04-07T05:24:20.365Z,1005.15
2016-04-07T05:25:20.304Z,1005.17
2016-04-07T05:26:20.260Z,1005.2
2016-04-07T05:27:20.201Z,1005.25
2016-04-07T05:28:20.141Z,1005.24
2016-04-07T05:29:20.098Z,1005.26
2016-04-07T05:30:23.256Z,1005.3
2016-04-07T05:31:20.009Z,1005.33
2016-04-07T05:32:19.964Z,1005.32
2016-04-07T05:33:19.904Z,1005.32
2016-04-07T05:34:19.861Z,1005.33
2016-04-07T05:35:20.020Z,1005.35
2016-04-07T05:36:19.772Z,1005.37
2016-04-07T05:37:19.728Z,1005.29
2016-04-07T05:38:19.668Z,1005.38
2016-04-07T05:39:19.625Z,1005.36
2016-04-07T05:40:22.580Z,1005.34
2016-04-07T05:41:19.536Z,1005.36
2016-04-07T05:42:19.491Z,1005.36
2016-04-07T05:43:19.447Z,1005.36
2016-04-07T05:44:19.388Z,1005.37
2016-04-07T05:45:19.344Z,1005.32
2016-04-07T05:46:22.299Z,1005.32
2016-04-07T05:47:19.255Z,1005.39
2016-04-07T05:48:19.211Z,1005.37
2016-04-07T05:49:19.152Z,1005.36
2016-04-07T05:50:19.122Z,1005.4
2016-04-07T05:51:19.063Z,1005.36
2016-04-07T05:52:19.019Z,1005.39
2016-04-07T05:53:18.974Z,1005.38
2016-04-07T05:54:18.946Z,1005.34
2016-04-07T05:55:22.089Z,1005.39
2016-04-07T05:56:18.827Z,1005.39
2016-04-07T05:57:18.782Z,1005.43
2016-04-07T05:58:18.737Z,1005.37
2016-04-07T05:59:18.693Z,1005.41
2016-04-07T06:00:18.634Z,1005.4
2016-04-07T06:01:18.589Z,1005.39
2016-04-07T06:02:18.545Z,1005.43
2016-04-07T06:03:18.501Z,1005.46
2016-04-07T06:04:18.457Z,1005.46
2016-04-07T06:05:21.412Z,1005.47
2016-04-07T06:06:21.368Z,1005.45
2016-04-07T06:07:18.308Z,1005.46
2016-04-07T06:08:18.253Z,1005.45
2016-04-07T06:09:18.209Z,1005.5
2016-04-07T06:10:18.166Z,1005.5
2016-04-07T06:11:18.122Z,1005.49
2016-04-07T06:12:18.077Z,1005.49
2016-04-07T06:13:18.033Z,1005.52
2016-04-07T06:14:17.989Z,1005.51
2016-04-07T06:15:17.929Z,1005.5
2016-04-07T06:16:17.885Z,1005.55
2016-04-07T06:17:17.841Z,1005.53
2016-04-07T06:18:17.812Z,1005.53
2016-04-07T06:19:17.736Z,1005.55
2016-04-07T06:20:17.693Z,1005.59
2016-04-07T06:21:17.680Z,1005.55
2016-04-07T06:22:17.604Z,1005.55
2016-04-07T06:23:17.560Z,1005.57
2016-04-07T06:24:17.499Z,1005.56
2016-04-07T06:25:17.456Z,1005.6
2016-04-07T06:26:17.411Z,1005.57
2016-04-07T06:27:20.382Z,1005.61
2016-04-07T06:28:17.323Z,1005.62
2016-04-07T06:29:17.279Z,1005.6
2016-04-07T06:30:17.234Z,1005.57
2016-04-07T06:31:17.175Z,1005.58
2016-04-07T06:32:17.131Z,1005.62
2016-04-07T06:33:17.086Z,1005.6
2016-04-07T06:34:17.042Z,1005.6
2016-04-07T06:35:16.998Z,1005.66
2016-04-07T06:36:16.954Z,1005.57
2016-04-07T06:37:16.894Z,1005.63
2016-04-07T06:38:16.850Z,1005.64
2016-04-07T06:39:19.821Z,1005.63
2016-04-07T06:40:16.762Z,1005.63
2016-04-07T06:41:16.702Z,1005.69
2016-04-07T06:42:16.658Z,1005.64
2016-04-07T06:43:16.614Z,1005.71
2016-04-07T06:44:19.570Z,1005.71
2016-04-07T06:45:16.525Z,1005.71
2016-04-07T06:46:16.465Z,1005.64
2016-04-07T06:47:16.421Z,1005.68
2016-04-07T06:48:16.377Z,1005.67
2016-04-07T06:49:16.380Z,1005.65
2016-04-07T06:50:16.289Z,1005.68
2016-04-07T06:51:16.244Z,1005.66
2016-04-07T06:52:16.185Z,1005.7
2016-04-07T06:53:16.156Z,1005.7
2016-04-07T06:54:16.190Z,1005.73
2016-04-07T06:55:16.051Z,1005.77
2016-04-07T06:56:15.992Z,1005.74
2016-04-07T06:57:15.948Z,1005.75
2016-04-07T06:58:15.904Z,1005.76
2016-04-07T06:59:15.860Z,1005.76
2016-04-07T07:00:15.878Z,1005.83
2016-04-07T07:01:15.771Z,1005.84
2016-04-07T07:02:15.726Z,1005.77
2016-04-07T07:03:15.683Z,1005.78
2016-04-07T07:04:15.623Z,1005.79
2016-04-07T07:05:15.782Z,1005.83
2016-04-07T07:06:15.629Z,1005.81
2016-04-07T07:07:15.506Z,1005.82
2016-04-07T07:08:15.447Z,1005.77
2016-04-07T07:09:15.450Z,1005.84
2016-04-07T07:10:15.342Z,1005.86
2016-04-07T07:11:15.298Z,1005.85
2016-04-07T07:12:15.253Z,1005.88
2016-04-07T07:13:15.225Z,1005.87
2016-04-07T07:14:15.181Z,1005.88
2016-04-07T07:15:15.106Z,1005.83
2016-04-07T07:16:18.062Z,1005.8
2016-04-07T07:17:15.033Z,1005.79
2016-04-07T07:18:14.989Z,1005.87
2016-04-07T07:19:14.929Z,1005.84
2016-04-07T07:20:14.885Z,1005.83
2016-04-07T07:21:14.825Z,1005.88
2016-04-07T07:22:14.796Z,1005.89
2016-04-07T07:23:14.737Z,1005.88
2016-04-07T07:24:14.692Z,1005.96
2016-04-07T07:25:14.648Z,1005.89
2016-04-07T07:26:14.604Z,1005.93
2016-04-07T07:27:17.560Z,1005.96
2016-04-07T07:28:14.501Z,1005.93
2016-04-07T07:29:14.456Z,1005.99
2016-04-07T07:30:14.396Z,1005.94
2016-04-07T07:31:14.367Z,1005.97
2016-04-07T07:32:14.308Z,1005.98
2016-04-07T07:33:17.347Z,1006.02
2016-04-07T07:34:14.224Z,1006.03
2016-04-07T07:35:14.165Z,1006.02
2016-04-07T07:36:14.121Z,1006.08
2016-04-07T07:37:14.077Z,1006.06
2016-04-07T07:38:14.033Z,1006.03
2016-04-07T07:39:13.988Z,1006.09
2016-04-07T07:40:14.106Z,1006.1
2016-04-07T07:41:13.905Z,1006.1
2016-04-07T07:42:13.923Z,1006.1
2016-04-07T07:43:13.801Z,1006.08
2016-04-07T07:44:13.756Z,1006.09
2016-04-07T07:45:13.697Z,1006.12
2016-04-07T07:46:13.669Z,1006.07
2016-04-07T07:47:13.609Z,1006.02
2016-04-07T07:48:13.565Z,1006.05
2016-04-07T07:49:13.505Z,1006.07
2016-04-07T07:50:13.461Z,1006.04
2016-04-07T07:51:13.416Z,1006.06
2016-04-07T07:52:13.388Z,1006.1
2016-04-07T07:53:13.327Z,1006.1
2016-04-07T07:54:13.283Z,1006.13
2016-04-07T07:55:13.255Z,1006.14
2016-04-07T07:56:13.179Z,1006.13
2016-04-07T07:57:13.135Z,1006.16
2016-04-07T07:58:13.091Z,1006.12
2016-04-07T07:59:13.047Z,1006.06
2016-04-07T08:00:13.004Z,1006.14
2016-04-07T08:01:12.959Z,1006.15
2016-04-07T08:02:12.930Z,1006.17
2016-04-07T08:03:12.871Z,1006.17
2016-04-07T08:04:12.810Z,1006.14
2016-04-07T08:05:12.767Z,1006.2
2016-04-07T08:06:12.706Z,1006.23
2016-04-07T08:07:12.662Z,1006.24
2016-04-07T08:08:12.618Z,1006.23
2016-04-07T08:09:12.574Z,1006.22
2016-04-07T08:10:12.546Z,1006.25
2016-04-07T08:11:12.486Z,1006.26
2016-04-07T08:12:12.473Z,1006.26
2016-04-07T08:13:12.381Z,1006.21
2016-04-07T08:14:12.337Z,1006.27
2016-04-07T08:15:12.309Z,1006.26
2016-04-07T08:16:12.265Z,1006.28
2016-04-07T08:17:12.190Z,1006.3
2016-04-07T08:18:12.145Z,1006.32
2016-04-07T08:19:12.101Z,1006.26
2016-04-07T08:20:12.072Z,1006.33
2016-04-07T08:21:11.997Z,1006.26
2016-04-07T08:22:11.969Z,1006.29
2016-04-07T08:23:11.924Z,1006.25
2016-04-07T08:24:11.864Z,1006.34
2016-04-07T08:25:11.820Z,1006.31
2016-04-07T08:26:11.760Z,1006.34
2016-04-07T08:27:11.716Z,1006.38
2016-04-07T08:28:11.672Z,1006.34
2016-04-07T08:29:11.628Z,1006.37
2016-04-07T08:30:11.585Z,1006.33
2016-04-07T08:31:15.102Z,1006.43
2016-04-07T08:32:11.496Z,1006.45
2016-04-07T08:33:11.451Z,1006.43
2016-04-07T08:34:11.391Z,1006.39
2016-04-07T08:35:11.347Z,1006.54
2016-04-07T08:36:11.287Z,1006.42
2016-04-07T08:37:11.245Z,1006.39
2016-04-07T08:38:11.200Z,1006.39
2016-04-07T08:39:11.156Z,1006.4
2016-04-07T08:40:11.111Z,1006.42
2016-04-07T08:41:11.068Z,1006.46
2016-04-07T08:42:11.023Z,1006.41
2016-04-07T08:43:10.963Z,1006.47
2016-04-07T08:44:10.919Z,1006.43
2016-04-07T08:45:11.579Z,1006.42
2016-04-07T08:46:10.832Z,1006.44
2016-04-07T08:47:10.787Z,1006.43
2016-04-07T08:48:10.743Z,1006.41
2016-04-07T08:49:10.682Z,1006.43
2016-04-07T08:50:13.857Z,1006.47
2016-04-07T08:51:10.594Z,1006.43
2016-04-07T08:52:10.565Z,1006.51
2016-04-07T08:53:10.506Z,1006.54
2016-04-07T08:54:10.446Z,1006.55
2016-04-07T08:55:10.573Z,1006.55
2016-04-07T08:56:10.373Z,1006.59
2016-04-07T08:57:10.329Z,1006.53
2016-04-07T08:58:10.269Z,1006.48
2016-04-07T08:59:13.272Z,1006.54
2016-04-07T09:00:10.181Z,1006.55
2016-04-07T09:01:10.122Z,1006.59
2016-04-07T09:02:10.062Z,1006.6
2016-04-07T09:03:10.017Z,1006.6
2016-04-07T09:04:10.036Z,1006.56
2016-04-07T09:05:09.928Z,1006.56
2016-04-07T09:06:09.885Z,1006.49
2016-04-07T09:07:09.840Z,1006.63
2016-04-07T09:08:09.811Z,1006.56
2016-04-07T09:09:09.736Z,1006.55
2016-04-07T09:10:09.708Z,1006.51
2016-04-07T09:11:09.663Z,1006.51
2016-04-07T09:12:09.605Z,1006.49
2016-04-07T09:13:09.560Z,1006.53
2016-04-07T09:14:09.500Z,1006.52
2016-04-07T09:15:09.487Z,1006.5
2016-04-07T09:16:09.412Z,1006.52
2016-04-07T09:17:09.368Z,1006.48
2016-04-07T09:18:09.323Z,1006.45
2016-04-07T09:19:09.279Z,1006.44
2016-04-07T09:20:09.234Z,1006.53
2016-04-07T09:21:09.254Z,1006.47
2016-04-07T09:22:09.186Z,1006.4
2016-04-07T09:23:09.162Z,1006.48
2016-04-07T09:24:09.123Z,1006.51
2016-04-07T09:25:09.240Z,1006.5
2016-04-07T09:26:09.108Z,1006.49
2016-04-07T09:27:09.085Z,1006.45
2016-04-07T09:28:09.055Z,1006.49
2016-04-07T09:29:09.070Z,1006.51
2016-04-07T09:30:08.992Z,1006.46
2016-04-07T09:31:08.977Z,1006.45
2016-04-07T09:32:08.909Z,1006.49
2016-04-07T09:33:08.916Z,1006.48
2016-04-07T09:34:08.829Z,1006.47
2016-04-07T09:35:08.789Z,1006.53
2016-04-07T09:36:08.750Z,1006.53
2016-04-07T09:37:08.693Z,1006.54
2016-04-07T09:38:08.651Z,1006.59
2016-04-07T09:39:08.609Z,1006.61
2016-04-07T09:40:08.551Z,1006.6
2016-04-07T09:41:08.509Z,1006.62
2016-04-07T09:42:08.481Z,1006.62
2016-04-07T09:43:08.422Z,1006.59
2016-04-07T09:44:08.395Z,1006.58
2016-04-07T09:45:08.335Z,1006.6
2016-04-07T09:46:08.291Z,1006.62
2016-04-07T09:47:08.263Z,1006.57
2016-04-07T09:48:08.688Z,1006.58
2016-04-07T09:49:08.144Z,1006.61
2016-04-07T09:50:08.100Z,1006.6
2016-04-07T09:51:08.055Z,1006.51
2016-04-07T09:52:07.996Z,1006.39
2016-04-07T09:53:07.982Z,1006.46
2016-04-07T09:54:07.920Z,1006.53
2016-04-07T09:55:07.923Z,1006.49
2016-04-07T09:56:07.816Z,1006.6
2016-04-07T09:57:07.772Z,1006.51
2016-04-07T09:58:07.727Z,1006.44
2016-04-07T09:59:07.668Z,1006.45
2016-04-07T10:00:07.624Z,1006.63
2016-04-07T10:01:07.579Z,1006.59
2016-04-07T10:02:07.535Z,1006.46
2016-04-07T10:03:07.475Z,1006.49
2016-04-07T10:04:07.431Z,1006.48
2016-04-07T10:05:07.403Z,1006.55
2016-04-07T10:06:07.328Z,1006.61
2016-04-07T10:07:07.346Z,1006.61
2016-04-07T10:08:07.271Z,1006.55
2016-04-07T10:09:07.210Z,1006.75
2016-04-07T10:10:07.166Z,1006.61
2016-04-07T10:11:07.106Z,1006.7
2016-04-07T10:12:07.062Z,1006.62
2016-04-07T10:13:07.033Z,1006.6
2016-04-07T10:14:06.974Z,1006.62
2016-04-07T10:15:07.008Z,1006.58
2016-04-07T10:16:06.869Z,1006.6
2016-04-07T10:17:09.844Z,1006.57
2016-04-07T10:18:06.781Z,1006.58
2016-04-07T10:19:06.831Z,1006.57
2016-04-07T10:20:06.678Z,1006.56
2016-04-07T10:21:09.652Z,1006.52
2016-04-07T10:22:06.589Z,1006.59
2016-04-07T10:23:06.591Z,1006.51
2016-04-07T10:24:06.502Z,1006.58
2016-04-07T10:25:06.457Z,1006.61
2016-04-07T10:26:06.444Z,1006.61
2016-04-07T10:27:06.353Z,1006.53
2016-04-07T10:28:06.308Z,1006.62
2016-04-07T10:29:06.265Z,1006.6
2016-04-07T10:30:06.220Z,1006.56
2016-04-07T10:31:06.160Z,1006.5
2016-04-07T10:32:06.115Z,1006.48
2016-04-07T10:33:06.087Z,1006.41
2016-04-07T10:34:06.028Z,1006.5
2016-04-07T10:35:05.968Z,1006.55
2016-04-07T10:36:05.940Z,1006.45
2016-04-07T10:37:05.879Z,1006.59
2016-04-07T10:38:05.820Z,1006.59
2016-04-07T10:39:05.775Z,1006.55
2016-04-07T10:40:05.731Z,1006.57
2016-04-07T10:41:05.702Z,1006.57
2016-04-07T10:42:05.674Z,1006.58
2016-04-07T10:43:05.614Z,1006.61
2016-04-07T10:44:05.555Z,1006.67
2016-04-07T10:45:05.526Z,1006.59
2016-04-07T10:46:05.467Z,1006.61
2016-04-07T10:47:05.406Z,1006.6
2016-04-07T10:48:05.362Z,1006.72
2016-04-07T10:49:05.319Z,1006.7
2016-04-07T10:50:05.274Z,1006.7
2016-04-07T10:51:05.230Z,1006.63
2016-04-07T10:52:05.186Z,1006.6
2016-04-07T10:53:05.126Z,1006.68
2016-04-07T10:54:05.082Z,1006.63
2016-04-07T10:55:05.038Z,1006.54
2016-04-07T10:56:04.993Z,1006.68
2016-04-07T10:57:04.949Z,1006.62
2016-04-07T10:58:04.889Z,1006.6
2016-04-07T10:59:04.845Z,1006.57
2016-04-07T11:00:04.801Z,1006.6
2016-04-07T11:01:04.881Z,1006.68
2016-04-07T11:02:04.712Z,1006.58
2016-04-07T11:03:04.652Z,1006.62
2016-04-07T11:04:04.609Z,1006.6
2016-04-07T11:05:04.565Z,1006.49
2016-04-07T11:06:04.520Z,1006.55
2016-04-07T11:07:04.538Z,1006.54
2016-04-07T11:08:04.431Z,1006.56
2016-04-07T11:09:04.372Z,1006.62
2016-04-07T11:10:04.405Z,1006.53
2016-04-07T11:11:04.314Z,1006.64
2016-04-07T11:12:04.270Z,1006.6
2016-04-07T11:13:04.242Z,1006.61
2016-04-07T11:14:04.136Z,1006.48
2016-04-07T11:15:04.107Z,1006.53
2016-04-07T11:16:04.047Z,1006.5
2016-04-07T11:17:04.003Z,1006.56
2016-04-07T11:18:03.942Z,1006.52
2016-04-07T11:19:03.899Z,1006.59
2016-04-07T11:20:03.855Z,1006.51
2016-04-07T11:21:03.811Z,1006.53
2016-04-07T11:22:03.767Z,1006.56
2016-04-07T11:23:03.722Z,1006.57
2016-04-07T11:24:03.678Z,1006.57
2016-04-07T11:25:03.665Z,1006.53
2016-04-07T11:26:03.589Z,1006.52
2016-04-07T11:27:03.529Z,1006.54
2016-04-07T11:28:03.485Z,1006.55
2016-04-07T11:29:03.441Z,1006.51
2016-04-07T11:30:03.397Z,1006.46
2016-04-07T11:31:03.338Z,1006.46
2016-04-07T11:32:03.293Z,1006.52
2016-04-07T11:33:03.233Z,1006.53
2016-04-07T11:34:03.190Z,1006.49
2016-04-07T11:35:03.145Z,1006.54
2016-04-07T11:36:03.101Z,1006.53
2016-04-07T11:37:03.057Z,1006.54
2016-04-07T11:38:03.012Z,1006.5
2016-04-07T11:39:02.953Z,1006.52
2016-04-07T11:40:02.971Z,1006.52
2016-04-07T11:41:02.943Z,1006.49
2016-04-07T11:42:02.820Z,1006.49
2016-04-07T11:43:02.792Z,1006.52
2016-04-07T11:44:05.810Z,1006.55
2016-04-07T11:45:02.687Z,1006.54
2016-04-07T11:46:12.006Z,1006.54
2016-04-07T11:47:02.600Z,1006.51
2016-04-07T11:48:02.633Z,1006.58
2016-04-07T11:49:02.542Z,1006.52
2016-04-07T11:50:02.451Z,1006.48
2016-04-07T11:51:02.563Z,1006.51
2016-04-07T11:52:02.534Z,1006.6
2016-04-07T11:53:02.350Z,1006.53
2016-04-07T11:54:02.258Z,1006.55
2016-04-07T11:55:02.371Z,1006.53
2016-04-07T11:56:02.170Z,1006.51
2016-04-07T11:57:02.158Z,1006.52
2016-04-07T11:58:02.066Z,1006.51
2016-04-07T11:59:02.053Z,1006.51
2016-04-07T12:00:01.978Z,1006.5
2016-04-07T12:01:01.933Z,1006.49
2016-04-07T12:02:02.030Z,1006.49
2016-04-07T12:03:01.846Z,1006.6
2016-04-07T12:04:01.816Z,1006.56
2016-04-07T12:05:01.773Z,1006.58
2016-04-07T12:06:01.713Z,1006.57
2016-04-07T12:07:01.653Z,1006.57
2016-04-07T12:08:01.890Z,1006.52